createdAt,value
2023-04-10T00:02:22.373Z,8.65
2023-04-10T00:04:49.487Z,7.95
2023-04-10T00:07:16.981Z,6.57
2023-04-10T00:09:43.771Z,7.97
2023-04-10T00:12:11.233Z,8.43
2023-04-10T00:14:38.048Z,7.75
2023-04-10T00:17:04.879Z,8.10
2023-04-10T00:19:31.605Z,7.78
2023-04-10T00:21:58.329Z,7.45
2023-04-10T00:24:25.347Z,7.57
2023-04-10T00:26:52.175Z,8.10
2023-04-10T00:29:19.415Z,8.07
2023-04-10T00:31:46.172Z,7.60
2023-04-10T00:34:14.103Z,8.05
2023-04-10T00:36:41.066Z,7.65
2023-04-10T00:39:09.527Z,7.55
2023-04-10T00:41:36.265Z,7.47
2023-04-10T00:44:03.158Z,6.95
2023-04-10T00:46:31.175Z,6.90
2023-04-10T00:48:58.311Z,8.20
2023-04-10T00:51:26.574Z,7.57
2023-04-10T00:53:55.218Z,7.88
2023-04-10T00:56:25.909Z,7.38
2023-04-10T00:58:52.729Z,7.95
2023-04-10T01:01:19.537Z,7.78
2023-04-10T01:03:46.496Z,7.82
2023-04-10T01:06:44.371Z,8.18
2023-04-10T01:09:40.309Z,7.50
2023-04-10T01:12:19.010Z,7.47
2023-04-10T01:14:56.866Z,7.72
2023-04-10T01:17:26.604Z,7.30
2023-04-10T01:20:13.840Z,7.72
2023-04-10T01:23:02.396Z,7.72
2023-04-10T01:25:35.640Z,7.97
2023-04-10T01:28:25.136Z,7.53
2023-04-10T01:30:57.678Z,7.70
2023-04-10T01:33:30.794Z,7.10
2023-04-10T01:38:28.041Z,8.00
2023-04-10T01:40:55.278Z,7.63
2023-04-10T01:43:29.485Z,7.00
2023-04-10T01:45:57.686Z,7.28
2023-04-10T01:48:25.904Z,7.85
2023-04-10T01:50:53.326Z,7.90
2023-04-10T01:53:23.600Z,7.53
2023-04-10T01:55:51.189Z,8.40
2023-04-10T01:58:18.902Z,8.35
2023-04-10T02:00:46.422Z,8.18
2023-04-10T02:03:15.645Z,8.48
2023-04-10T02:06:10.502Z,8.27
2023-04-10T02:08:43.140Z,8.65
2023-04-10T02:11:50.643Z,8.20
2023-04-10T02:14:18.441Z,8.65
2023-04-10T02:16:50.433Z,8.15
2023-04-10T02:19:18.060Z,8.27
2023-04-10T02:21:48.047Z,7.38
2023-04-10T02:24:14.944Z,7.57
2023-04-10T02:26:48.989Z,7.80
2023-04-10T02:29:15.852Z,8.27
2023-04-10T02:31:43.030Z,8.50
2023-04-10T02:34:11.078Z,8.57
2023-04-10T02:36:39.168Z,8.25
2023-04-10T02:39:08.254Z,8.98
2023-04-10T02:41:44.656Z,8.13
2023-04-10T02:44:13.742Z,7.78
2023-04-10T02:46:42.048Z,8.90
2023-04-10T02:49:10.464Z,8.43
2023-04-10T02:51:37.374Z,7.93
2023-04-10T02:54:07.378Z,8.10
2023-04-10T02:56:35.233Z,9.00
2023-04-10T02:59:02.165Z,8.65
2023-04-10T03:01:30.100Z,7.93
2023-04-10T03:03:58.330Z,8.30
2023-04-10T03:06:28.894Z,8.07
2023-04-10T03:08:57.302Z,7.88
2023-04-10T03:11:24.122Z,9.30
2023-04-10T03:13:51.441Z,8.60
2023-04-10T03:16:18.876Z,9.10
2023-04-10T03:18:46.870Z,8.30
2023-04-10T03:21:13.657Z,8.68
2023-04-10T03:23:40.404Z,8.52
2023-04-10T03:26:07.290Z,8.10
2023-04-10T03:28:38.160Z,7.80
2023-04-10T03:31:05.799Z,7.10
2023-04-10T03:33:35.619Z,7.50
2023-04-10T03:36:04.103Z,7.45
2023-04-10T03:38:33.060Z,8.55
2023-04-10T03:41:00.044Z,7.68
2023-04-10T03:43:31.120Z,7.63
2023-04-10T03:45:58.426Z,8.45
2023-04-10T03:48:28.292Z,7.15
2023-04-10T03:50:55.527Z,8.30
2023-04-10T03:53:22.943Z,7.78
2023-04-10T03:55:52.497Z,7.18
2023-04-10T03:58:22.368Z,8.27
2023-04-10T04:00:50.041Z,8.13
2023-04-10T04:03:29.044Z,7.30
2023-04-10T04:05:58.685Z,8.48
2023-04-10T04:08:51.351Z,8.02
2023-04-10T04:11:35.792Z,9.75
2023-04-10T04:14:07.218Z,8.70
2023-04-10T04:16:52.340Z,9.13
2023-04-10T04:19:25.362Z,8.63
2023-04-10T04:22:10.411Z,7.85
2023-04-10T04:24:55.761Z,8.18
2023-04-10T04:27:33.065Z,7.93
2023-04-10T04:30:29.052Z,8.73
2023-04-10T04:33:14.512Z,7.57
2023-04-10T04:35:59.853Z,7.93
2023-04-10T04:38:52.331Z,8.05
2023-04-10T04:41:51.636Z,8.80
2023-04-10T04:44:32.407Z,8.80
2023-04-10T04:47:28.429Z,7.78
2023-04-10T04:50:09.010Z,8.25
2023-04-10T04:53:08.814Z,8.05
2023-04-10T04:56:02.004Z,8.23
2023-04-10T04:58:47.181Z,8.43
2023-04-10T05:01:45.972Z,7.88
2023-04-10T05:04:23.805Z,7.90
2023-04-10T05:07:17.332Z,7.50
2023-04-10T05:09:46.762Z,8.95
2023-04-10T05:12:35.772Z,7.20
2023-04-10T05:15:15.780Z,8.02
2023-04-10T05:18:01.159Z,8.68
2023-04-10T05:20:56.589Z,9.70
2023-04-10T05:23:52.538Z,8.77
2023-04-10T05:26:28.483Z,8.82
2023-04-10T05:29:15.639Z,8.30
2023-04-10T05:31:42.340Z,9.70
2023-04-10T05:34:29.059Z,7.78
2023-04-10T05:37:13.005Z,8.87
2023-04-10T05:39:59.575Z,9.32
2023-04-10T05:42:30.822Z,9.15
2023-04-10T05:45:15.034Z,8.43
2023-04-10T05:47:56.308Z,8.52
2023-04-10T05:50:38.762Z,9.15
2023-04-10T05:53:31.855Z,8.25
2023-04-10T05:56:21.189Z,8.73
2023-04-10T05:58:59.969Z,8.57
2023-04-10T06:01:47.216Z,9.30
2023-04-10T06:04:15.749Z,9.57
2023-04-10T06:06:42.600Z,9.25
2023-04-10T06:09:10.720Z,9.35
2023-04-10T06:11:37.612Z,9.48
2023-04-10T06:14:04.367Z,9.07
2023-04-10T06:16:38.460Z,9.48
2023-04-10T06:19:05.409Z,8.93
2023-04-10T06:21:32.225Z,10.05
2023-04-10T06:23:59.006Z,10.00
2023-04-10T06:26:28.091Z,10.15
2023-04-10T06:28:56.489Z,9.63
2023-04-10T06:31:24.332Z,9.40
2023-04-10T06:33:51.638Z,9.25
2023-04-10T06:36:18.698Z,9.60
2023-04-10T06:38:58.506Z,9.65
2023-04-10T06:41:26.883Z,10.00
2023-04-10T06:43:55.483Z,9.38
2023-04-10T06:46:22.296Z,9.88
2023-04-10T06:48:49.089Z,9.20
2023-04-10T06:51:16.078Z,9.77
2023-04-10T06:53:42.825Z,10.63
2023-04-10T06:56:09.992Z,10.80
2023-04-10T06:58:36.919Z,10.55
2023-04-10T07:01:04.620Z,11.75
2023-04-10T07:03:35.774Z,10.45
2023-04-10T07:06:03.467Z,10.52
2023-04-10T07:08:31.445Z,10.32
2023-04-10T07:10:58.858Z,10.07
2023-04-10T07:13:25.944Z,9.73
2023-04-10T07:15:52.802Z,11.15
2023-04-10T07:18:20.502Z,10.25
2023-04-10T07:20:48.510Z,9.38
2023-04-10T07:23:16.566Z,9.18
2023-04-10T07:25:43.302Z,9.63
2023-04-10T07:28:09.993Z,10.40
2023-04-10T07:30:37.428Z,9.60
2023-04-10T07:33:04.520Z,9.18
2023-04-10T07:35:31.595Z,8.20
2023-04-10T07:37:58.314Z,9.23
2023-04-10T07:40:25.048Z,9.38
2023-04-10T07:42:53.759Z,9.88
2023-04-10T07:45:23.008Z,8.57
2023-04-10T07:47:49.961Z,8.60
2023-04-10T07:50:17.512Z,8.75
2023-04-10T07:52:44.211Z,7.45
2023-04-10T07:55:11.113Z,8.43
2023-04-10T07:57:37.950Z,6.82
2023-04-10T08:00:05.160Z,8.25
2023-04-10T08:02:40.925Z,8.40
2023-04-10T08:05:08.274Z,7.45
2023-04-10T08:07:38.236Z,7.82
2023-04-10T08:10:05.872Z,7.50
2023-04-10T08:12:38.520Z,7.07
2023-04-10T08:15:11.127Z,8.07
2023-04-10T08:17:38.262Z,6.88
2023-04-10T08:20:06.656Z,7.55
2023-04-10T08:22:33.462Z,6.25
2023-04-10T08:25:02.104Z,5.72
2023-04-10T08:27:34.304Z,5.55
2023-04-10T08:30:01.535Z,5.70
2023-04-10T08:32:29.147Z,5.53
2023-04-10T08:34:56.603Z,6.07
2023-04-10T08:37:24.412Z,6.60
2023-04-10T08:39:56.143Z,6.00
2023-04-10T08:42:27.365Z,6.20
2023-04-10T08:45:00.070Z,6.00
2023-04-10T08:47:28.916Z,6.07
2023-04-10T08:50:03.243Z,6.28
2023-04-10T08:52:36.434Z,5.60
2023-04-10T08:55:08.681Z,5.70
2023-04-10T08:57:39.084Z,6.38
2023-04-10T09:00:22.176Z,6.32
2023-04-10T09:02:56.666Z,5.90
2023-04-10T09:05:28.683Z,6.68
2023-04-10T09:07:57.426Z,6.20
2023-04-10T09:10:29.036Z,5.82
2023-04-10T09:12:57.489Z,5.82
2023-04-10T09:15:34.741Z,5.18
2023-04-10T09:18:03.135Z,5.90
2023-04-10T09:20:34.611Z,5.55
2023-04-10T09:23:04.746Z,5.20
2023-04-10T09:25:38.278Z,5.57
2023-04-10T09:28:11.627Z,5.07
2023-04-10T09:30:43.137Z,5.05
2023-04-10T09:33:29.277Z,5.38
2023-04-10T09:36:08.969Z,5.18
2023-04-10T09:38:43.364Z,4.80
2023-04-10T09:41:18.107Z,4.90
2023-04-10T09:43:47.021Z,4.28
2023-04-10T09:46:27.343Z,5.25
2023-04-10T09:49:03.056Z,5.30
2023-04-10T09:51:36.146Z,4.82
2023-04-10T09:54:06.083Z,4.63
2023-04-10T09:56:34.680Z,4.43
2023-04-10T09:59:03.103Z,5.82
2023-04-10T10:01:37.553Z,5.10
2023-04-10T10:04:05.500Z,5.07
2023-04-10T10:06:38.335Z,4.53
2023-04-10T10:09:05.793Z,4.97
2023-04-10T10:11:35.401Z,4.88
2023-04-10T10:14:13.860Z,4.57
2023-04-10T10:16:47.464Z,3.72
2023-04-10T10:19:29.600Z,4.15
2023-04-10T10:21:56.942Z,4.07
2023-04-10T10:24:27.477Z,3.67
2023-04-10T10:27:00.886Z,4.05
2023-04-10T10:29:32.318Z,3.90
2023-04-10T10:32:03.055Z,4.53
2023-04-10T10:34:36.315Z,3.95
2023-04-10T10:37:11.872Z,3.58
2023-04-10T10:40:00.576Z,3.95
2023-04-10T10:42:36.306Z,3.83
2023-04-10T10:45:12.402Z,3.42
2023-04-10T10:47:42.838Z,4.25
2023-04-10T10:50:09.946Z,4.20
2023-04-10T10:52:39.240Z,3.63
2023-04-10T10:55:38.697Z,3.45
2023-04-10T10:58:08.582Z,3.75
2023-04-10T11:01:04.155Z,3.90
2023-04-10T11:03:40.744Z,3.65
2023-04-10T11:06:14.865Z,3.63
2023-04-10T11:08:49.186Z,3.00
2023-04-10T11:11:33.440Z,2.80
2023-04-10T11:14:07.109Z,3.25
2023-04-10T11:16:37.813Z,2.97
2023-04-10T11:19:22.815Z,2.92
2023-04-10T11:22:08.141Z,2.88
2023-04-10T11:25:02.095Z,3.00
2023-04-10T11:27:40.085Z,2.55
2023-04-10T11:30:36.028Z,2.58
2023-04-10T11:33:04.886Z,2.13
2023-04-10T11:35:34.830Z,2.53
2023-04-10T11:38:13.147Z,2.53
2023-04-10T11:40:57.384Z,2.20
2023-04-10T11:43:29.371Z,1.90
2023-04-10T11:46:14.349Z,1.92
2023-04-10T11:48:41.265Z,2.17
2023-04-10T11:51:12.895Z,2.03
2023-04-10T11:53:43.069Z,2.30
2023-04-10T11:56:21.842Z,2.20
2023-04-10T11:58:51.080Z,1.90
2023-04-10T12:01:21.247Z,2.08
2023-04-10T12:03:48.444Z,1.95
2023-04-10T12:06:16.096Z,2.10
2023-04-10T12:08:46.239Z,1.83
2023-04-10T12:11:13.625Z,2.00
2023-04-10T12:13:41.032Z,1.92
2023-04-10T12:16:10.882Z,2.47
2023-04-10T12:18:38.793Z,2.10
2023-04-10T12:21:12.806Z,1.95
2023-04-10T12:23:40.108Z,2.25
2023-04-10T12:26:12.670Z,2.13
2023-04-10T12:28:43.385Z,1.63
2023-04-10T12:31:16.519Z,1.98
2023-04-10T12:33:50.955Z,1.75
2023-04-10T12:36:29.794Z,2.20
2023-04-10T12:39:02.139Z,2.35
2023-04-10T12:41:31.163Z,2.20
2023-04-10T12:44:08.642Z,1.80
2023-04-10T12:46:38.760Z,2.08
2023-04-10T12:49:09.731Z,2.05
2023-04-10T12:51:52.917Z,2.15
2023-04-10T12:54:29.000Z,2.25
2023-04-10T12:56:58.320Z,1.80
2023-04-10T12:59:28.958Z,1.85
2023-04-10T13:01:56.109Z,2.20
2023-04-10T13:04:23.612Z,2.03
2023-04-10T13:06:54.208Z,2.05
2023-04-10T13:09:21.802Z,2.20
2023-04-10T13:11:50.369Z,2.33
2023-04-10T13:14:18.723Z,1.67
2023-04-10T13:16:46.194Z,1.75
2023-04-10T13:19:13.162Z,1.80
2023-04-10T13:21:43.915Z,1.55
2023-04-10T13:24:11.105Z,1.80
2023-04-10T13:26:38.256Z,2.08
2023-04-10T13:29:05.256Z,2.40
2023-04-10T13:31:32.149Z,2.10
2023-04-10T13:33:58.895Z,1.85
2023-04-10T13:36:26.934Z,1.73
2023-04-10T13:38:54.398Z,2.15
2023-04-10T13:41:24.406Z,1.90
2023-04-10T13:43:53.413Z,1.92
2023-04-10T13:46:23.599Z,1.90
2023-04-10T13:48:50.745Z,2.10
2023-04-10T13:51:17.701Z,1.60
2023-04-10T13:53:44.501Z,2.10
2023-04-10T13:56:11.241Z,1.70
2023-04-10T13:58:38.776Z,2.30
2023-04-10T14:01:09.846Z,1.70
2023-04-10T14:03:41.569Z,2.03
2023-04-10T14:06:12.368Z,1.88
2023-04-10T14:08:39.447Z,1.70
2023-04-10T14:11:06.596Z,2.08
2023-04-10T14:13:33.480Z,1.83
2023-04-10T14:16:01.728Z,1.80
2023-04-10T14:18:28.753Z,1.65
2023-04-10T14:20:59.082Z,1.73
2023-04-10T14:23:31.072Z,1.65
2023-04-10T14:25:57.969Z,1.73
2023-04-10T14:28:25.141Z,1.75
2023-04-10T14:30:52.379Z,1.98
2023-04-10T14:33:21.849Z,1.70
2023-04-10T14:35:55.345Z,1.65
2023-04-10T14:38:22.157Z,1.55
2023-04-10T14:40:50.317Z,1.58
2023-04-10T14:43:17.393Z,1.63
2023-04-10T14:45:44.558Z,1.45
2023-04-10T14:48:14.202Z,2.00
2023-04-10T14:50:41.132Z,1.80
2023-04-10T14:53:09.738Z,1.77
2023-04-10T14:55:37.247Z,1.60
2023-04-10T14:58:06.532Z,1.80
2023-04-10T15:00:33.349Z,1.95
2023-04-10T15:03:00.381Z,1.70
2023-04-10T15:05:27.625Z,1.60
2023-04-10T15:07:55.157Z,1.63
2023-04-10T15:10:22.118Z,1.45
2023-04-10T15:12:48.945Z,1.70
2023-04-10T15:15:15.735Z,1.88
2023-04-10T15:17:42.694Z,1.73
2023-04-10T15:20:11.062Z,1.67
2023-04-10T15:22:37.845Z,1.33
2023-04-10T15:25:04.935Z,1.70
2023-04-10T15:27:31.674Z,1.50
2023-04-10T15:29:58.695Z,1.55
2023-04-10T15:32:25.809Z,2.88
2023-04-10T15:34:52.676Z,2.20
2023-04-10T15:37:19.767Z,2.15
2023-04-10T15:39:46.553Z,1.48
2023-04-10T15:42:13.422Z,1.42
2023-04-10T15:44:40.174Z,1.50
2023-04-10T15:47:07.013Z,1.35
2023-04-10T15:49:38.009Z,2.17
2023-04-10T15:52:06.331Z,1.35
2023-04-10T15:54:34.149Z,1.42
2023-04-10T15:57:02.039Z,1.20
2023-04-10T15:59:29.199Z,1.60
2023-04-10T16:01:56.289Z,1.65
2023-04-10T16:04:23.739Z,1.40
2023-04-10T16:06:50.820Z,1.45
2023-04-10T16:11:47.958Z,1.70
2023-04-10T16:14:14.700Z,1.40
2023-04-10T16:16:41.548Z,1.75
2023-04-10T16:19:08.818Z,1.63
2023-04-10T16:21:35.728Z,1.60
2023-04-10T16:24:10.986Z,1.42
2023-04-10T16:26:37.859Z,1.60
2023-04-10T16:29:04.586Z,1.60
2023-04-10T16:31:31.788Z,2.58
2023-04-10T16:33:58.615Z,2.65
2023-04-10T16:36:25.573Z,3.33
2023-04-10T16:38:52.392Z,3.30
2023-04-10T16:41:22.775Z,3.83
2023-04-10T16:43:51.503Z,2.75
2023-04-10T16:46:18.287Z,2.40
2023-04-10T16:48:53.959Z,2.22
2023-04-10T16:51:22.102Z,2.20
2023-04-10T16:53:48.920Z,2.55
2023-04-10T16:56:15.577Z,1.98
2023-04-10T16:58:42.737Z,2.30
2023-04-10T17:01:18.043Z,2.63
2023-04-10T17:03:48.180Z,2.50
2023-04-10T17:06:17.984Z,2.40
2023-04-10T17:08:45.816Z,3.38
2023-04-10T17:11:12.853Z,3.53
2023-04-10T17:13:50.664Z,2.45
2023-04-10T17:16:20.696Z,2.20
2023-04-10T17:18:47.574Z,2.08
2023-04-10T17:21:15.519Z,2.47
2023-04-10T17:23:44.911Z,2.28
2023-04-10T17:26:16.110Z,2.25
2023-04-10T17:28:46.763Z,2.90
2023-04-10T17:31:13.991Z,2.92
2023-04-10T17:33:44.083Z,2.55
2023-04-10T17:36:12.277Z,2.60
2023-04-10T17:38:40.387Z,2.95
2023-04-10T17:41:09.772Z,4.95
2023-04-10T17:43:36.513Z,6.43
2023-04-10T17:46:03.302Z,5.35
2023-04-10T17:48:30.527Z,4.60
2023-04-10T17:50:57.977Z,4.20
2023-04-10T17:53:27.512Z,3.67
2023-04-10T17:55:57.169Z,2.90
2023-04-10T17:58:24.619Z,2.97
2023-04-10T18:00:57.340Z,3.55
2023-04-10T18:03:24.199Z,4.60
2023-04-10T18:05:55.566Z,4.55
2023-04-10T18:08:22.503Z,4.70
2023-04-10T18:10:52.240Z,4.78
2023-04-10T18:13:21.585Z,4.40
2023-04-10T18:15:51.266Z,4.55
2023-04-10T18:18:17.952Z,4.03
2023-04-10T18:20:44.642Z,5.70
2023-04-10T18:23:11.491Z,4.50
2023-04-10T18:25:38.245Z,7.72
2023-04-10T18:28:14.453Z,10.98
2023-04-10T18:30:44.234Z,12.05
2023-04-10T18:33:11.684Z,9.15
2023-04-10T18:35:38.884Z,6.32
2023-04-10T18:38:06.106Z,4.55
2023-04-10T18:40:34.890Z,4.28
2023-04-10T18:43:01.668Z,3.92
2023-04-10T18:45:28.520Z,4.45
2023-04-10T18:47:55.438Z,4.13
2023-04-10T18:50:22.307Z,3.75
2023-04-10T18:52:49.218Z,5.35
2023-04-10T18:55:16.181Z,5.05
2023-04-10T18:57:43.110Z,5.20
2023-04-10T19:00:11.705Z,4.68
2023-04-10T19:02:38.995Z,3.28
2023-04-10T19:05:06.291Z,2.20
2023-04-10T19:07:33.091Z,2.35
2023-04-10T19:09:59.925Z,4.50
2023-04-10T19:12:26.660Z,5.47
2023-04-10T19:14:53.402Z,9.50
2023-04-10T19:17:21.809Z,8.73
2023-04-10T19:19:48.833Z,7.38
2023-04-10T19:22:16.345Z,3.33
2023-04-10T19:24:43.306Z,2.92
2023-04-10T19:27:10.329Z,2.50
2023-04-10T19:29:37.022Z,2.25
2023-04-10T19:32:04.064Z,2.10
2023-04-10T19:34:31.073Z,2.20
2023-04-10T19:36:58.406Z,1.80
2023-04-10T19:39:25.233Z,2.03
2023-04-10T19:41:52.006Z,2.83
2023-04-10T19:44:18.847Z,4.82
2023-04-10T19:46:48.323Z,5.78
2023-04-10T19:49:15.331Z,5.05
2023-04-10T19:51:42.081Z,3.90
2023-04-10T19:54:08.819Z,3.03
2023-04-10T19:56:37.809Z,2.72
2023-04-10T19:59:05.071Z,2.58
2023-04-10T20:01:33.727Z,2.22
2023-04-10T20:04:00.794Z,2.13
2023-04-10T20:06:27.640Z,2.15
2023-04-10T20:08:54.658Z,2.00
2023-04-10T20:11:21.691Z,2.08
2023-04-10T20:13:48.472Z,2.10
2023-04-10T20:16:15.851Z,2.33
2023-04-10T20:18:42.555Z,2.33
2023-04-10T20:21:09.367Z,2.13
2023-04-10T20:23:37.442Z,2.15
2023-04-10T20:26:04.156Z,2.60
2023-04-10T20:28:31.659Z,2.00
2023-04-10T20:30:58.380Z,2.30
2023-04-10T20:33:25.155Z,2.58
2023-04-10T20:35:52.936Z,2.97
2023-04-10T20:38:19.676Z,2.50
2023-04-10T20:40:46.475Z,2.50
2023-04-10T20:43:14.100Z,2.25
2023-04-10T20:45:41.299Z,2.50
2023-04-10T20:48:12.033Z,2.13
2023-04-10T20:50:49.403Z,3.00
2023-04-10T20:53:16.448Z,2.58
2023-04-10T20:55:43.495Z,4.70
2023-04-10T20:58:10.301Z,3.38
2023-04-10T21:00:38.294Z,3.95
2023-04-10T21:03:05.836Z,3.15
2023-04-10T21:05:32.917Z,3.08
2023-04-10T21:07:59.738Z,2.85
2023-04-10T21:10:26.743Z,2.75
2023-04-10T21:12:53.753Z,2.83
2023-04-10T21:15:20.702Z,3.08
2023-04-10T21:17:51.346Z,2.60
2023-04-10T21:20:18.182Z,2.70
2023-04-10T21:22:45.775Z,2.40
2023-04-10T21:25:12.745Z,2.25
2023-04-10T21:27:39.607Z,2.40
2023-04-10T21:30:07.368Z,2.97
2023-04-10T21:32:34.294Z,2.60
2023-04-10T21:35:01.908Z,2.70
2023-04-10T21:37:31.706Z,2.90
2023-04-10T21:40:03.986Z,3.17
2023-04-10T21:42:33.386Z,2.75
2023-04-10T21:45:03.392Z,2.85
2023-04-10T21:47:30.479Z,3.60
2023-04-10T21:49:57.397Z,3.45
2023-04-10T21:52:24.150Z,3.28
2023-04-10T21:54:50.905Z,3.17
2023-04-10T21:57:17.961Z,3.30
2023-04-10T21:59:44.999Z,3.08
2023-04-10T22:02:14.994Z,3.13
2023-04-10T22:04:53.877Z,3.17
2023-04-10T22:07:21.789Z,3.72
2023-04-10T22:09:48.757Z,3.45
2023-04-10T22:12:15.958Z,3.63
2023-04-10T22:14:42.920Z,3.30
2023-04-10T22:17:09.875Z,3.88
2023-04-10T22:19:37.222Z,3.60
2023-04-10T22:22:03.959Z,3.33
2023-04-10T22:24:33.862Z,2.95
2023-04-10T22:27:01.883Z,3.15
2023-04-10T22:29:28.596Z,2.92
2023-04-10T22:31:56.046Z,3.20
2023-04-10T22:34:22.928Z,3.00
2023-04-10T22:36:52.048Z,2.58
2023-04-10T22:39:18.861Z,2.67
2023-04-10T22:41:45.752Z,2.65
2023-04-10T22:44:12.614Z,2.95
2023-04-10T22:46:39.442Z,3.00
2023-04-10T22:49:07.043Z,2.97
2023-04-10T22:51:33.796Z,2.85
2023-04-10T22:54:00.622Z,3.60
2023-04-10T22:56:29.282Z,2.83
2023-04-10T22:58:56.578Z,2.70
2023-04-10T23:01:23.743Z,2.80
2023-04-10T23:03:53.770Z,2.70
2023-04-10T23:06:20.765Z,2.80
2023-04-10T23:08:47.487Z,2.55
2023-04-10T23:11:14.298Z,2.58
2023-04-10T23:13:42.928Z,2.72
2023-04-10T23:16:10.251Z,2.42
2023-04-10T23:18:37.676Z,2.10
2023-04-10T23:21:06.952Z,2.55
2023-04-10T23:23:33.765Z,2.53
2023-04-10T23:26:00.966Z,2.10
2023-04-10T23:28:28.406Z,2.33
2023-04-10T23:30:55.140Z,2.40
2023-04-10T23:33:22.292Z,2.58
2023-04-10T23:35:49.172Z,2.22
2023-04-10T23:38:15.989Z,2.38
2023-04-10T23:40:42.675Z,1.98
2023-04-10T23:43:09.462Z,1.60
2023-04-10T23:45:36.447Z,2.25
2023-04-10T23:48:03.236Z,2.30
2023-04-10T23:50:31.992Z,1.92
2023-04-10T23:52:59.983Z,3.00
2023-04-10T23:55:26.928Z,2.28
2023-04-10T23:57:56.359Z,2.47
